Time;durP1;ratioP1;P1;durP2;ratioP2;P2;SDS_P1;SDS_P2;PMS_P1;PMS_P2;Temp;Humidity;BMP_temperature;BMP_pressure;BME280_temperature;BME280_humidity;BME280_pressure;Samples;Min_cycle;Max_cycle;Signal;HPM_P1;HPM_P2
2023/04/28 00:00:50;;;;;;;;;;;11.20;59.20;;;;;;5007737;28;19928;-75
2023/04/28 00:03:16;;;;;;;;;;;11.20;59.20;;;;;;5006281;28;19921;-75
2023/04/28 00:05:41;;;;;;;;;;;11.10;59.20;;;;;;5025699;28;19925;-75
2023/04/28 00:08:07;;;;;;;;;;;11.10;59.30;;;;;;5011387;28;22814;-75
2023/04/28 00:10:32;;;;;;;;;;;11.10;59.20;;;;;;4995922;28;19957;-75
2023/04/28 00:12:58;;;;;;;;;;;11.10;59.20;;;;;;5015106;28;19928;-75
2023/04/28 00:15:23;;;;;;;;;;;11.10;59.30;;;;;;5028801;28;19924;-74
2023/04/28 00:17:49;;;;;;;;;;;11.10;59.30;;;;;;5029375;28;19921;-75
2023/04/28 00:20:14;;;;;;;;;;;11.00;59.30;;;;;;5030396;28;19968;-74
2023/04/28 00:22:40;;;;;;;;;;;11.00;59.30;;;;;;5014396;28;19921;-75
2023/04/28 00:25:05;;;;;;;;;;;11.00;59.40;;;;;;5028306;28;20296;-75
2023/04/28 00:27:34;;;;;;;;;;;11.00;59.30;;;;;;5006593;28;19936;-74
2023/04/28 00:29:59;;;;;;;;;;;11.00;59.40;;;;;;4998915;28;19925;-74
2023/04/28 00:32:25;;;;;;;;;;;10.90;59.40;;;;;;5018074;28;19928;-74
2023/04/28 00:34:52;;;;;;;;;;;10.90;59.40;;;;;;5005983;28;19917;-74
2023/04/28 00:37:17;;;;;;;;;;;10.90;59.40;;;;;;5001400;28;19921;-74
2023/04/28 00:39:46;;;;;;;;;;;10.90;59.50;;;;;;5015777;28;19925;-74
2023/04/28 00:42:14;;;;;;;;;;;10.90;59.50;;;;;;5016409;28;20241;-74
2023/04/28 00:44:40;;;;;;;;;;;10.90;59.50;;;;;;5015066;28;20582;-74
2023/04/28 00:47:06;;;;;;;;;;;10.80;59.50;;;;;;5033018;28;20612;-73
2023/04/28 00:49:32;;;;;;;;;;;10.80;59.50;;;;;;5013212;28;19971;-75
2023/04/28 00:52:02;;;;;;;;;;;10.80;59.60;;;;;;5016975;28;19920;-75
2023/04/28 00:54:28;;;;;;;;;;;10.80;59.50;;;;;;5004399;28;19999;-75
2023/04/28 00:56:53;;;;;;;;;;;10.80;59.60;;;;;;5015643;28;19989;-74
2023/04/28 00:59:19;;;;;;;;;;;10.80;59.60;;;;;;5032080;28;20012;-75
2023/04/28 01:01:45;;;;;;;;;;;10.80;59.60;;;;;;5032091;28;19921;-74
2023/04/28 01:04:10;;;;;;;;;;;10.70;59.60;;;;;;5013869;28;20414;-75
2023/04/28 01:06:36;;;;;;;;;;;10.70;59.60;;;;;;5001823;28;19975;-75
2023/04/28 01:09:01;;;;;;;;;;;10.70;59.60;;;;;;5018879;28;19924;-75
2023/04/28 01:11:27;;;;;;;;;;;10.70;59.60;;;;;;5004330;28;20430;-74
2023/04/28 01:13:52;;;;;;;;;;;10.70;59.70;;;;;;5033444;28;19968;-74
2023/04/28 01:16:18;;;;;;;;;;;10.70;59.70;;;;;;5032885;28;19975;-75
2023/04/28 01:18:46;;;;;;;;;;;10.60;59.70;;;;;;5032188;28;20032;-75
2023/04/28 01:21:11;;;;;;;;;;;10.60;59.70;;;;;;5031627;28;19928;-74
2023/04/28 01:23:37;;;;;;;;;;;10.60;59.70;;;;;;5016016;28;20445;-74
2023/04/28 01:26:02;;;;;;;;;;;10.60;59.70;;;;;;5014090;28;19925;-75
2023/04/28 01:28:27;;;;;;;;;;;10.60;59.70;;;;;;5029728;28;20577;-74
2023/04/28 01:30:55;;;;;;;;;;;10.60;59.80;;;;;;5017698;28;19925;-73
2023/04/28 01:33:20;;;;;;;;;;;10.60;59.80;;;;;;5033598;28;20501;-75
2023/04/28 01:35:46;;;;;;;;;;;10.50;59.80;;;;;;5011579;28;19935;-74
2023/04/28 01:38:11;;;;;;;;;;;10.50;59.80;;;;;;5035074;28;19925;-74
2023/04/28 01:40:37;;;;;;;;;;;10.50;60.00;;;;;;5030472;28;20759;-74
2023/04/28 01:43:02;;;;;;;;;;;10.50;59.80;;;;;;5015052;28;19927;-74
2023/04/28 01:45:28;;;;;;;;;;;10.50;59.80;;;;;;5012078;28;19932;-74
2023/04/28 01:47:53;;;;;;;;;;;10.50;59.80;;;;;;5030932;28;20008;-74
2023/04/28 01:50:18;;;;;;;;;;;10.50;59.90;;;;;;5030161;28;19920;-74
2023/04/28 01:52:44;;;;;;;;;;;10.50;59.90;;;;;;5031249;28;19928;-75
2023/04/28 01:55:10;;;;;;;;;;;10.50;59.90;;;;;;5029995;28;20664;-74
2023/04/28 01:57:35;;;;;;;;;;;10.50;59.90;;;;;;5013794;28;19921;-74
2023/04/28 02:00:02;;;;;;;;;;;10.50;60.00;;;;;;5017197;28;20292;-74
2023/04/28 02:02:27;;;;;;;;;;;10.50;59.90;;;;;;5015204;28;19943;-74
2023/04/28 02:04:52;;;;;;;;;;;10.50;59.90;;;;;;5014414;28;20442;-74
2023/04/28 02:07:18;;;;;;;;;;;10.50;59.90;;;;;;5011759;28;19921;-74
2023/04/28 02:09:43;;;;;;;;;;;10.40;59.90;;;;;;5019221;28;19964;-74
2023/04/28 02:12:09;;;;;;;;;;;10.40;60.00;;;;;;5015083;28;20481;-74
2023/04/28 02:14:34;;;;;;;;;;;10.40;59.90;;;;;;5013475;28;19936;-74
2023/04/28 02:17:01;;;;;;;;;;;10.40;60.00;;;;;;5015055;28;20016;-75
2023/04/28 02:19:27;;;;;;;;;;;10.40;60.00;;;;;;5010727;28;20012;-74
2023/04/28 02:21:52;;;;;;;;;;;10.40;60.00;;;;;;5010128;28;19921;-74
2023/04/28 02:24:18;;;;;;;;;;;10.40;60.00;;;;;;5015361;28;19921;-74
2023/04/28 02:26:43;;;;;;;;;;;10.40;60.00;;;;;;5013761;28;19928;-74
2023/04/28 02:29:09;;;;;;;;;;;10.40;60.00;;;;;;5018281;28;20409;-74
2023/04/28 02:31:34;;;;;;;;;;;10.40;60.00;;;;;;5022278;28;19926;-74
2023/04/28 02:34:00;;;;;;;;;;;10.40;60.10;;;;;;5014682;28;19956;-75
2023/04/28 02:36:26;;;;;;;;;;;10.40;60.10;;;;;;5012649;28;19931;-74
2023/04/28 02:38:52;;;;;;;;;;;10.40;60.10;;;;;;5012027;28;19928;-74
2023/04/28 02:41:17;;;;;;;;;;;10.40;60.10;;;;;;5010197;28;20107;-75
2023/04/28 02:43:43;;;;;;;;;;;10.40;60.10;;;;;;5015061;28;19921;-75
2023/04/28 02:46:08;;;;;;;;;;;10.40;60.10;;;;;;5010448;28;20422;-75
2023/04/28 02:48:35;;;;;;;;;;;10.40;60.10;;;;;;5012932;28;19924;-75
2023/04/28 02:51:01;;;;;;;;;;;10.40;60.20;;;;;;5007055;28;20319;-75
2023/04/28 02:53:26;;;;;;;;;;;10.40;60.20;;;;;;5008283;28;19979;-75
2023/04/28 02:55:52;;;;;;;;;;;10.40;60.20;;;;;;5026555;28;19924;-75
2023/04/28 02:58:17;;;;;;;;;;;10.40;60.20;;;;;;4997846;28;19957;-74
2023/04/28 03:00:42;;;;;;;;;;;10.30;60.20;;;;;;4992685;28;20376;-74
2023/04/28 03:03:08;;;;;;;;;;;10.40;60.20;;;;;;5006732;28;19932;-75
2023/04/28 03:05:33;;;;;;;;;;;10.40;60.20;;;;;;5008551;28;19980;-74
2023/04/28 03:07:59;;;;;;;;;;;10.30;60.20;;;;;;5010753;28;19921;-75
2023/04/28 03:10:24;;;;;;;;;;;10.30;60.30;;;;;;5011374;28;19921;-75
2023/04/28 03:12:50;;;;;;;;;;;10.30;60.20;;;;;;5009452;28;19999;-74
2023/04/28 03:15:15;;;;;;;;;;;10.40;60.30;;;;;;5015367;28;20307;-74
2023/04/28 03:17:41;;;;;;;;;;;10.30;60.30;;;;;;5012909;28;20037;-75
2023/04/28 03:20:07;;;;;;;;;;;10.30;60.30;;;;;;5013886;28;20291;-75
2023/04/28 03:22:33;;;;;;;;;;;10.30;60.30;;;;;;5044632;28;19924;-74
2023/04/28 03:24:58;;;;;;;;;;;10.30;60.30;;;;;;5012123;28;20433;-75
2023/04/28 03:27:24;;;;;;;;;;;10.30;60.40;;;;;;5013524;28;19960;-74
2023/04/28 03:29:49;;;;;;;;;;;10.30;60.40;;;;;;5026336;28;19932;-75
2023/04/28 03:32:15;;;;;;;;;;;10.30;60.40;;;;;;5015134;28;19943;-75
2023/04/28 03:34:40;;;;;;;;;;;10.30;60.40;;;;;;5028142;28;20588;-75
2023/04/28 03:37:06;;;;;;;;;;;10.30;60.40;;;;;;5026222;28;19956;-74
2023/04/28 03:39:31;;;;;;;;;;;10.30;60.40;;;;;;5013855;28;19924;-74
2023/04/28 03:41:57;;;;;;;;;;;10.30;60.40;;;;;;4998332;28;19921;-75
2023/04/28 03:44:22;;;;;;;;;;;10.30;60.50;;;;;;5013926;28;19924;-75
2023/04/28 03:46:48;;;;;;;;;;;10.30;60.50;;;;;;5013054;28;19928;-75
2023/04/28 03:49:13;;;;;;;;;;;10.30;60.50;;;;;;5010711;28;19920;-75
2023/04/28 03:51:39;;;;;;;;;;;10.30;60.40;;;;;;5026439;28;19920;-76
2023/04/28 03:54:05;;;;;;;;;;;10.30;60.40;;;;;;5010570;28;20009;-75
2023/04/28 03:56:30;;;;;;;;;;;10.30;60.40;;;;;;4995172;28;20382;-75
2023/04/28 03:58:56;;;;;;;;;;;10.30;60.50;;;;;;5027939;28;19921;-75
2023/04/28 04:01:21;;;;;;;;;;;10.30;60.50;;;;;;5028371;28;19960;-75
2023/04/28 04:03:47;;;;;;;;;;;10.30;60.50;;;;;;5012239;28;19940;-76
2023/04/28 04:06:12;;;;;;;;;;;10.20;60.50;;;;;;5018868;28;20011;-75
2023/04/28 04:08:38;;;;;;;;;;;10.20;60.50;;;;;;5000250;28;19921;-74
2023/04/28 04:11:03;;;;;;;;;;;10.20;60.60;;;;;;5017738;28;19913;-76
2023/04/28 04:13:29;;;;;;;;;;;10.20;60.70;;;;;;5017755;28;19936;-75
2023/04/28 04:15:54;;;;;;;;;;;10.20;60.70;;;;;;4999971;28;19928;-75
2023/04/28 04:18:20;;;;;;;;;;;10.20;60.70;;;;;;5018414;28;19920;-75
2023/04/28 04:20:45;;;;;;;;;;;10.20;60.70;;;;;;5015606;28;19957;-75
2023/04/28 04:23:11;;;;;;;;;;;10.20;60.70;;;;;;5029444;28;20421;-75
2023/04/28 04:25:36;;;;;;;;;;;10.20;60.80;;;;;;5030375;28;19987;-75
2023/04/28 04:28:02;;;;;;;;;;;10.20;60.80;;;;;;5012387;28;19925;-75
2023/04/28 04:30:27;;;;;;;;;;;10.20;60.80;;;;;;5029925;28;19920;-75
2023/04/28 04:32:53;;;;;;;;;;;10.20;60.80;;;;;;5027425;28;19921;-75
2023/04/28 04:35:18;;;;;;;;;;;10.20;60.90;;;;;;5012090;28;19921;-75
2023/04/28 04:37:44;;;;;;;;;;;10.20;60.90;;;;;;5010531;28;19921;-75
2023/04/28 04:40:09;;;;;;;;;;;10.20;60.90;;;;;;5011615;28;20630;-75
2023/04/28 04:42:35;;;;;;;;;;;10.20;60.90;;;;;;5028027;28;19920;-76
2023/04/28 04:45:00;;;;;;;;;;;10.20;60.90;;;;;;5015147;28;19940;-75
2023/04/28 04:47:27;;;;;;;;;;;10.20;61.00;;;;;;5032235;28;20287;-75
2023/04/28 04:49:52;;;;;;;;;;;10.20;61.00;;;;;;5029748;28;19925;-75
2023/04/28 04:52:17;;;;;;;;;;;10.20;61.00;;;;;;5017698;28;19921;-75
2023/04/28 04:54:43;;;;;;;;;;;10.20;61.00;;;;;;5001074;28;19953;-75
2023/04/28 04:57:10;;;;;;;;;;;10.20;61.00;;;;;;4999869;28;19925;-75
2023/04/28 04:59:35;;;;;;;;;;;10.20;61.00;;;;;;5014933;28;19945;-75
2023/04/28 05:02:01;;;;;;;;;;;10.20;61.10;;;;;;5013904;28;19942;-75
2023/04/28 05:04:27;;;;;;;;;;;10.20;61.00;;;;;;5032447;28;19952;-75
2023/04/28 05:06:52;;;;;;;;;;;10.20;61.00;;;;;;5026664;28;19929;-75
2023/04/28 05:09:18;;;;;;;;;;;10.20;61.00;;;;;;5001028;28;19924;-75
2023/04/28 05:11:44;;;;;;;;;;;10.20;61.00;;;;;;5018099;28;19967;-74
2023/04/28 05:14:09;;;;;;;;;;;10.20;61.10;;;;;;4988202;28;19937;-75
2023/04/28 05:16:35;;;;;;;;;;;10.20;61.10;;;;;;5015501;28;19921;-75
2023/04/28 05:19:00;;;;;;;;;;;10.20;61.10;;;;;;5014010;28;19920;-75
2023/04/28 05:21:25;;;;;;;;;;;10.20;61.10;;;;;;4998463;28;19921;-75
2023/04/28 05:23:52;;;;;;;;;;;10.20;61.20;;;;;;5014144;28;20367;-75
2023/04/28 05:26:18;;;;;;;;;;;10.20;61.20;;;;;;5014880;28;19925;-75
2023/04/28 05:28:43;;;;;;;;;;;10.30;61.20;;;;;;5032729;28;20055;-75
2023/04/28 05:31:08;;;;;;;;;;;10.20;61.20;;;;;;5031126;28;19931;-75
2023/04/28 05:33:34;;;;;;;;;;;10.30;61.20;;;;;;5034074;28;19971;-75
2023/04/28 05:35:59;;;;;;;;;;;10.30;61.20;;;;;;5014003;28;19925;-75
2023/04/28 05:38:25;;;;;;;;;;;10.30;61.20;;;;;;5001401;28;20376;-75
2023/04/28 05:40:50;;;;;;;;;;;10.30;61.20;;;;;;5014021;28;20394;-75
2023/04/28 05:43:16;;;;;;;;;;;10.30;62.00;;;;;;5033379;28;19928;-75
2023/04/28 05:45:41;;;;;;;;;;;10.30;61.20;;;;;;5001141;28;20343;-75
2023/04/28 05:48:07;;;;;;;;;;;10.30;61.20;;;;;;5017261;28;19928;-75
2023/04/28 05:50:32;;;;;;;;;;;10.30;61.20;;;;;;5034563;28;20026;-75
2023/04/28 05:52:58;;;;;;;;;;;10.30;61.20;;;;;;5031092;28;19932;-75
2023/04/28 05:55:23;;;;;;;;;;;10.30;61.20;;;;;;5013064;28;19921;-75
2023/04/28 05:57:49;;;;;;;;;;;10.30;61.20;;;;;;5029270;28;19921;-75
2023/04/28 06:00:14;;;;;;;;;;;10.40;61.30;;;;;;5031991;28;20305;-75
2023/04/28 06:02:40;;;;;;;;;;;10.40;61.30;;;;;;5028550;28;19968;-75
2023/04/28 06:05:06;;;;;;;;;;;10.40;61.30;;;;;;5029658;28;20708;-75
2023/04/28 06:07:31;;;;;;;;;;;10.40;61.30;;;;;;5013395;28;20016;-75
2023/04/28 06:09:56;;;;;;;;;;;10.40;61.30;;;;;;5027543;28;19920;-75
2023/04/28 06:12:22;;;;;;;;;;;10.50;61.30;;;;;;5016380;28;20387;-75
2023/04/28 06:14:47;;;;;;;;;;;10.50;61.30;;;;;;4994825;28;19991;-75
2023/04/28 06:17:13;;;;;;;;;;;10.50;61.30;;;;;;5010527;28;19921;-76
2023/04/28 06:19:38;;;;;;;;;;;10.50;61.30;;;;;;5022446;28;19928;-75
2023/04/28 06:22:04;;;;;;;;;;;10.50;61.30;;;;;;5011952;28;19927;-75
2023/04/28 06:24:30;;;;;;;;;;;10.60;61.30;;;;;;5009888;28;19936;-75
2023/04/28 06:26:55;;;;;;;;;;;10.50;61.20;;;;;;5027694;28;20417;-75
2023/04/28 06:29:22;;;;;;;;;;;10.50;61.20;;;;;;5008006;28;19928;-75
2023/04/28 06:31:48;;;;;;;;;;;10.50;61.20;;;;;;5023373;28;20319;-75
2023/04/28 06:34:13;;;;;;;;;;;10.60;61.30;;;;;;5005272;28;20592;-75
2023/04/28 06:36:39;;;;;;;;;;;10.60;61.30;;;;;;5024190;28;19922;-75
2023/04/28 06:39:05;;;;;;;;;;;10.60;61.30;;;;;;5014495;28;19933;-76
2023/04/28 06:41:30;;;;;;;;;;;10.60;61.30;;;;;;5008301;28;20765;-75
2023/04/28 06:43:56;;;;;;;;;;;10.60;61.30;;;;;;5014716;28;19921;-76
2023/04/28 06:46:21;;;;;;;;;;;10.60;61.50;;;;;;5029148;28;20403;-75
2023/04/28 06:48:47;;;;;;;;;;;10.60;61.40;;;;;;5027630;28;19925;-76
2023/04/28 06:51:13;;;;;;;;;;;10.70;61.40;;;;;;5012596;28;19956;-75
2023/04/28 06:53:38;;;;;;;;;;;10.70;61.40;;;;;;5010272;28;19924;-75
2023/04/28 06:56:04;;;;;;;;;;;10.70;61.30;;;;;;5013626;28;19975;-76
2023/04/28 06:58:29;;;;;;;;;;;10.70;61.40;;;;;;5009198;28;19921;-76
2023/04/28 07:00:55;;;;;;;;;;;10.70;61.40;;;;;;5009715;28;19921;-75
2023/04/28 07:03:20;;;;;;;;;;;10.70;61.40;;;;;;5004770;28;19960;-76
2023/04/28 07:05:46;;;;;;;;;;;10.70;61.40;;;;;;5006208;28;19925;-75
2023/04/28 07:08:11;;;;;;;;;;;10.70;61.50;;;;;;4993324;28;20346;-75
2023/04/28 07:10:37;;;;;;;;;;;10.70;61.50;;;;;;5024213;28;20072;-75
2023/04/28 07:13:02;;;;;;;;;;;10.70;61.50;;;;;;5012606;28;19921;-76
2023/04/28 07:15:28;;;;;;;;;;;10.70;61.50;;;;;;5027877;28;19964;-75
2023/04/28 07:17:53;;;;;;;;;;;10.70;61.50;;;;;;4997146;28;20485;-75
2023/04/28 07:20:18;;;;;;;;;;;10.70;61.50;;;;;;5009923;28;20545;-76
2023/04/28 07:22:44;;;;;;;;;;;10.70;61.50;;;;;;5014323;28;20000;-75
2023/04/28 07:25:10;;;;;;;;;;;10.70;61.50;;;;;;5013995;28;19932;-75
2023/04/28 07:27:35;;;;;;;;;;;10.70;61.50;;;;;;5015494;28;19917;-75
2023/04/28 07:30:01;;;;;;;;;;;10.70;61.60;;;;;;5002131;28;19917;-76
2023/04/28 07:32:26;;;;;;;;;;;10.70;61.60;;;;;;5012255;28;20612;-76
2023/04/28 07:34:52;;;;;;;;;;;10.70;61.60;;;;;;5001008;28;19917;-76
2023/04/28 07:37:17;;;;;;;;;;;10.70;61.60;;;;;;5026016;28;19929;-76
2023/04/28 07:39:43;;;;;;;;;;;10.70;61.70;;;;;;5032575;28;19978;-76
2023/04/28 07:42:08;;;;;;;;;;;10.70;61.60;;;;;;5035729;28;19960;-76
2023/04/28 07:44:34;;;;;;;;;;;10.70;61.60;;;;;;5018492;28;19921;-76
2023/04/28 07:46:59;;;;;;;;;;;10.70;61.70;;;;;;5049526;28;19932;-76
2023/04/28 07:49:28;;;;;;;;;;;10.70;61.70;;;;;;5015734;28;19924;-77
2023/04/28 07:51:54;;;;;;;;;;;10.80;61.70;;;;;;5048330;28;19921;-76
2023/04/28 07:54:20;;;;;;;;;;;10.80;61.70;;;;;;5016095;28;19925;-76
2023/04/28 07:56:45;;;;;;;;;;;10.80;61.70;;;;;;4993061;28;19951;-76
2023/04/28 07:59:10;;;;;;;;;;;10.80;61.70;;;;;;5016862;28;24659;-76
2023/04/28 08:01:36;;;;;;;;;;;10.90;61.70;;;;;;5033565;28;19920;-76
2023/04/28 08:04:02;;;;;;;;;;;10.80;61.70;;;;;;5003071;28;19929;-76
2023/04/28 08:06:27;;;;;;;;;;;10.80;61.70;;;;;;5016195;28;19964;-76
2023/04/28 08:08:53;;;;;;;;;;;10.80;61.70;;;;;;5030640;28;19921;-76
2023/04/28 08:11:20;;;;;;;;;;;10.80;61.70;;;;;;5016030;28;20019;-76
2023/04/28 08:13:45;;;;;;;;;;;10.80;61.80;;;;;;5025674;28;20030;-76
2023/04/28 08:16:11;;;;;;;;;;;10.90;61.80;;;;;;5028821;28;20770;-76
2023/04/28 08:18:37;;;;;;;;;;;10.90;61.90;;;;;;5011190;28;20319;-76
2023/04/28 08:21:02;;;;;;;;;;;10.90;61.80;;;;;;5012437;28;20007;-75
2023/04/28 08:23:30;;;;;;;;;;;10.90;61.80;;;;;;5015098;28;19921;-76
2023/04/28 08:25:56;;;;;;;;;;;11.00;61.90;;;;;;5025479;28;19925;-76
2023/04/28 08:28:21;;;;;;;;;;;11.00;61.90;;;;;;5025730;28;20528;-76
2023/04/28 08:30:47;;;;;;;;;;;11.00;61.80;;;;;;5007951;28;19918;-76
2023/04/28 08:33:12;;;;;;;;;;;11.00;61.80;;;;;;5010312;28;19921;-76
2023/04/28 08:35:38;;;;;;;;;;;11.10;61.80;;;;;;5007445;28;19925;-76
2023/04/28 08:38:04;;;;;;;;;;;11.10;61.80;;;;;;5024957;28;20474;-76
2023/04/28 08:40:30;;;;;;;;;;;11.10;61.80;;;;;;5010962;28;19925;-76
2023/04/28 08:42:56;;;;;;;;;;;11.10;61.80;;;;;;5010248;28;19936;-76
2023/04/28 08:45:22;;;;;;;;;;;11.20;61.90;;;;;;5014965;28;19990;-76
2023/04/28 08:47:48;;;;;;;;;;;11.20;61.80;;;;;;5029339;28;19967;-76
2023/04/28 08:50:14;;;;;;;;;;;11.30;61.80;;;;;;5012749;28;20008;-76
2023/04/28 08:52:40;;;;;;;;;;;11.30;61.80;;;;;;5025946;28;20542;-76
2023/04/28 08:55:06;;;;;;;;;;;11.30;61.70;;;;;;5006372;28;20433;-76
2023/04/28 08:57:34;;;;;;;;;;;11.30;61.70;;;;;;5007468;28;19921;-76
2023/04/28 09:00:00;;;;;;;;;;;11.40;61.80;;;;;;5010000;28;19996;-76
2023/04/28 09:02:26;;;;;;;;;;;11.50;61.80;;;;;;5029730;28;19918;-76
2023/04/28 09:04:51;;;;;;;;;;;11.50;61.70;;;;;;5012030;28;19924;-75
2023/04/28 09:07:17;;;;;;;;;;;11.50;61.70;;;;;;5009844;28;20471;-75
2023/04/28 09:09:44;;;;;;;;;;;11.50;61.70;;;;;;5004750;28;19929;-76
2023/04/28 09:12:10;;;;;;;;;;;11.50;61.70;;;;;;5010124;28;19932;-76
2023/04/28 09:14:36;;;;;;;;;;;11.60;61.80;;;;;;5011096;28;19937;-76
2023/04/28 09:17:01;;;;;;;;;;;11.60;61.80;;;;;;5010029;28;19971;-76
2023/04/28 09:19:34;;;;;;;;;;;11.60;61.80;;;;;;5013604;28;19925;-76
2023/04/28 09:22:00;;;;;;;;;;;11.60;61.80;;;;;;5026393;28;19921;-75
2023/04/28 09:24:30;;;;;;;;;;;11.60;61.90;;;;;;4997834;28;20430;-76
2023/04/28 09:26:55;;;;;;;;;;;11.70;61.80;;;;;;5012296;28;20600;-75
2023/04/28 09:29:21;;;;;;;;;;;11.70;61.80;;;;;;4994143;28;20007;-75
2023/04/28 09:31:46;;;;;;;;;;;11.70;61.80;;;;;;5026009;28;19925;-76
2023/04/28 09:34:12;;;;;;;;;;;11.80;61.80;;;;;;5013266;28;19925;-76
2023/04/28 09:36:38;;;;;;;;;;;11.80;61.80;;;;;;5009784;28;20032;-76
2023/04/28 09:39:03;;;;;;;;;;;11.80;61.70;;;;;;5012521;28;20395;-76
2023/04/28 09:41:36;;;;;;;;;;;11.90;61.80;;;;;;5013040;28;19926;-77
2023/04/28 09:44:14;;;;;;;;;;;11.90;62.50;;;;;;5011230;28;19921;-76
2023/04/28 09:46:40;;;;;;;;;;;12.00;61.80;;;;;;5013983;28;20126;-76
2023/04/28 09:49:06;;;;;;;;;;;12.00;61.70;;;;;;5011214;28;20395;-76
2023/04/28 09:51:31;;;;;;;;;;;12.10;61.80;;;;;;5012420;28;19921;-77
2023/04/28 09:53:58;;;;;;;;;;;12.10;61.70;;;;;;5010350;28;20662;-75
2023/04/28 09:56:24;;;;;;;;;;;12.20;61.70;;;;;;5025292;28;19931;-76
2023/04/28 09:58:49;;;;;;;;;;;12.20;61.60;;;;;;5008742;28;19922;-76
2023/04/28 10:01:15;;;;;;;;;;;12.20;61.60;;;;;;5010418;28;19928;-76
2023/04/28 10:03:40;;;;;;;;;;;12.30;61.70;;;;;;5012114;28;20459;-76
2023/04/28 10:06:07;;;;;;;;;;;12.30;61.70;;;;;;5022896;28;20012;-75
2023/04/28 10:08:33;;;;;;;;;;;12.40;61.80;;;;;;5007866;28;19991;-76
2023/04/28 10:10:58;;;;;;;;;;;12.40;61.70;;;;;;5009331;28;19933;-75
2023/04/28 10:13:24;;;;;;;;;;;12.40;61.60;;;;;;5014336;28;19931;-76
2023/04/28 10:15:49;;;;;;;;;;;12.50;61.70;;;;;;5015316;28;19956;-76
2023/04/28 10:18:15;;;;;;;;;;;12.50;61.70;;;;;;5015026;28;19925;-76
2023/04/28 10:20:41;;;;;;;;;;;12.50;61.60;;;;;;5029779;28;19924;-76
2023/04/28 10:23:25;;;;;;;;;;;12.60;61.60;;;;;;5017391;28;19917;-76
2023/04/28 10:25:53;;;;;;;;;;;12.60;61.70;;;;;;5031104;28;19935;-76
2023/04/28 10:28:18;;;;;;;;;;;12.60;62.50;;;;;;5011649;28;19974;-76
2023/04/28 10:31:02;;;;;;;;;;;12.60;61.60;;;;;;5015848;28;19921;-76
2023/04/28 10:33:27;;;;;;;;;;;12.70;61.70;;;;;;4998127;28;19982;-76
2023/04/28 10:35:53;;;;;;;;;;;12.70;61.60;;;;;;5029493;28;19921;-76
2023/04/28 10:38:20;;;;;;;;;;;12.80;61.70;;;;;;5035038;28;19999;-76
2023/04/28 10:40:49;;;;;;;;;;;12.80;61.70;;;;;;5014741;28;19964;-75
2023/04/28 10:43:26;;;;;;;;;;;12.80;61.60;;;;;;5006728;28;20619;-77
2023/04/28 10:45:52;;;;;;;;;;;12.80;61.60;;;;;;5040136;28;19924;-76
2023/04/28 10:48:38;;;;;;;;;;;12.90;61.60;;;;;;5019778;28;19928;-75
2023/04/28 10:51:04;;;;;;;;;;;12.90;61.60;;;;;;5024680;28;20390;-75
2023/04/28 10:53:45;;;;;;;;;;;13.00;61.60;;;;;;5031196;28;19925;-75
2023/04/28 10:56:21;;;;;;;;;;;13.10;61.60;;;;;;5045201;28;19964;-76
2023/04/28 10:58:50;;;;;;;;;;;13.10;61.60;;;;;;5047156;28;19921;-75
2023/04/28 11:01:23;;;;;;;;;;;13.10;61.60;;;;;;5027306;28;20005;-76
2023/04/28 11:06:33;;;;;;;;;;;13.20;61.60;;;;;;5028560;28;19956;-75
2023/04/28 11:09:00;;;;;;;;;;;13.20;61.50;;;;;;5002153;28;19925;-74
2023/04/28 11:11:37;;;;;;;;;;;13.30;61.60;;;;;;5017922;28;20442;-75
2023/04/28 11:14:15;;;;;;;;;;;13.30;61.60;;;;;;5012137;28;19932;-75
2023/04/28 11:16:54;;;;;;;;;;;13.40;61.60;;;;;;5005435;28;19930;-76
2023/04/28 11:19:20;;;;;;;;;;;13.40;61.50;;;;;;5009088;28;20030;-76
2023/04/28 11:21:45;;;;;;;;;;;13.50;61.60;;;;;;5026114;28;19921;-75
2023/04/28 11:24:11;;;;;;;;;;;13.50;61.50;;;;;;5010025;28;20383;-75
2023/04/28 11:26:37;;;;;;;;;;;13.60;61.50;;;;;;5007311;28;19932;-75
2023/04/28 11:29:02;;;;;;;;;;;13.60;61.50;;;;;;5027103;28;19921;-75
2023/04/28 11:31:28;;;;;;;;;;;13.70;61.50;;;;;;5011543;28;19925;-76
2023/04/28 11:33:58;;;;;;;;;;;13.70;61.50;;;;;;5003848;28;19960;-75
2023/04/28 11:36:23;;;;;;;;;;;13.70;61.50;;;;;;4994239;28;19917;-75
2023/04/28 11:38:49;;;;;;;;;;;13.80;61.60;;;;;;5011330;28;19917;-75
2023/04/28 11:41:14;;;;;;;;;;;13.80;61.50;;;;;;5008294;28;21321;-75
2023/04/28 11:43:40;;;;;;;;;;;13.90;61.50;;;;;;5009264;28;20007;-76
2023/04/28 11:46:08;;;;;;;;;;;13.90;61.50;;;;;;5000297;28;20457;-75
2023/04/28 11:48:34;;;;;;;;;;;14.00;61.50;;;;;;5009573;28;19921;-75
2023/04/28 11:50:59;;;;;;;;;;;14.10;61.50;;;;;;5009871;28;19925;-76
2023/04/28 11:53:43;;;;;;;;;;;14.20;61.30;;;;;;5023481;28;19928;-75
2023/04/28 11:56:09;;;;;;;;;;;14.30;61.30;;;;;;5022433;28;19925;-76
2023/04/28 11:58:34;;;;;;;;;;;14.40;61.20;;;;;;5002538;28;19921;-75
2023/04/28 12:01:09;;;;;;;;;;;14.40;61.20;;;;;;4996552;28;20403;-75
2023/04/28 12:03:41;;;;;;;;;;;14.50;61.20;;;;;;5009495;28;19921;-75
2023/04/28 12:06:07;;;;;;;;;;;14.60;61.20;;;;;;4991393;28;19939;-75
2023/04/28 12:08:32;;;;;;;;;;;14.60;61.20;;;;;;4996363;28;20482;-75
2023/04/28 12:11:11;;;;;;;;;;;14.60;61.10;;;;;;5007813;28;19925;-76
2023/04/28 12:13:37;;;;;;;;;;;14.70;61.10;;;;;;5013675;28;19959;-75
2023/04/28 12:16:06;;;;;;;;;;;14.80;61.10;;;;;;5015735;28;20623;-75
2023/04/28 12:18:32;;;;;;;;;;;14.80;61.00;;;;;;5020490;28;20408;-76
2023/04/28 12:20:59;;;;;;;;;;;14.90;61.00;;;;;;4999870;28;19921;-75
2023/04/28 12:23:34;;;;;;;;;;;14.90;61.00;;;;;;5016341;28;19920;-76
2023/04/28 12:26:00;;;;;;;;;;;15.00;60.90;;;;;;5016512;28;19982;-75
2023/04/28 12:28:35;;;;;;;;;;;15.10;60.90;;;;;;5019482;28;19972;-76
2023/04/28 12:31:04;;;;;;;;;;;15.20;60.90;;;;;;5012823;28;19925;-75
2023/04/28 12:33:29;;;;;;;;;;;15.20;60.80;;;;;;5019389;28;20379;-76
2023/04/28 12:35:55;;;;;;;;;;;15.30;60.80;;;;;;5016777;28;19927;-75
2023/04/28 12:38:21;;;;;;;;;;;15.30;60.80;;;;;;5018010;28;19925;-76
2023/04/28 12:40:47;;;;;;;;;;;15.40;60.80;;;;;;5020742;28;19956;-76
2023/04/28 12:43:12;;;;;;;;;;;15.40;60.80;;;;;;5036325;28;19932;-75
2023/04/28 12:45:38;;;;;;;;;;;15.50;60.80;;;;;;5016372;28;20002;-76
2023/04/28 12:48:03;;;;;;;;;;;15.50;60.70;;;;;;5032074;28;19947;-75
2023/04/28 12:50:31;;;;;;;;;;;15.60;60.80;;;;;;5019612;28;19925;-75
2023/04/28 12:52:57;;;;;;;;;;;15.60;60.70;;;;;;5032889;28;19928;-75
2023/04/28 12:55:23;;;;;;;;;;;15.70;60.70;;;;;;5017305;28;19921;-76
2023/04/28 12:57:48;;;;;;;;;;;15.70;60.60;;;;;;5047023;28;19927;-75
2023/04/28 13:00:15;;;;;;;;;;;15.70;60.70;;;;;;5016803;28;19956;-75
2023/04/28 13:02:40;;;;;;;;;;;15.80;60.70;;;;;;5017357;28;19925;-75
2023/04/28 13:05:06;;;;;;;;;;;15.80;60.70;;;;;;5016012;28;19921;-76
2023/04/28 13:07:34;;;;;;;;;;;15.80;61.20;;;;;;5032740;28;20366;-76
2023/04/28 13:10:00;;;;;;;;;;;15.90;60.70;;;;;;5015563;28;19968;-76
2023/04/28 13:12:25;;;;;;;;;;;15.90;60.70;;;;;;5016321;28;20909;-75
2023/04/28 13:14:51;;;;;;;;;;;15.90;60.60;;;;;;4996951;28;19981;-76
2023/04/28 13:17:16;;;;;;;;;;;16.00;60.70;;;;;;5013172;28;20355;-75
2023/04/28 13:19:42;;;;;;;;;;;16.00;60.60;;;;;;4986693;28;19983;-75
2023/04/28 13:22:09;;;;;;;;;;;16.00;60.60;;;;;;5006820;28;20300;-76
2023/04/28 13:24:35;;;;;;;;;;;16.10;60.70;;;;;;5015914;28;20027;-75
2023/04/28 13:27:02;;;;;;;;;;;16.10;60.70;;;;;;4993914;28;20370;-75
2023/04/28 13:29:28;;;;;;;;;;;16.20;60.70;;;;;;5010376;28;19974;-76
2023/04/28 13:31:54;;;;;;;;;;;16.20;60.60;;;;;;5027097;28;20499;-76
2023/04/28 13:34:19;;;;;;;;;;;16.30;60.60;;;;;;5012326;28;19991;-75
2023/04/28 13:36:46;;;;;;;;;;;16.40;60.50;;;;;;5009855;28;20032;-76
2023/04/28 13:39:15;;;;;;;;;;;16.50;60.50;;;;;;5009191;28;20592;-75
2023/04/28 13:41:41;;;;;;;;;;;16.70;60.50;;;;;;5011802;28;20008;-75
2023/04/28 13:44:06;;;;;;;;;;;16.80;60.40;;;;;;5010551;28;20789;-76
2023/04/28 13:46:31;;;;;;;;;;;17.00;60.40;;;;;;5011473;28;19932;-75
2023/04/28 13:48:57;;;;;;;;;;;17.30;60.20;;;;;;5009436;28;19927;-77
2023/04/28 13:51:22;;;;;;;;;;;17.50;60.00;;;;;;5009571;28;19928;-76
2023/04/28 13:53:48;;;;;;;;;;;17.60;59.80;;;;;;5011458;28;20340;-76
2023/04/28 13:56:13;;;;;;;;;;;17.70;59.80;;;;;;5007992;28;20447;-76
2023/04/28 13:58:39;;;;;;;;;;;17.70;59.70;;;;;;5030044;28;19991;-75
2023/04/28 14:01:05;;;;;;;;;;;17.90;59.70;;;;;;5006087;28;19928;-75
2023/04/28 14:03:30;;;;;;;;;;;18.00;59.60;;;;;;5014605;28;20375;-76
2023/04/28 14:05:56;;;;;;;;;;;18.10;59.50;;;;;;5010799;28;19932;-75
2023/04/28 14:08:22;;;;;;;;;;;18.20;59.50;;;;;;5009280;28;19921;-76
2023/04/28 14:10:48;;;;;;;;;;;18.40;59.40;;;;;;5025488;28;19943;-76
2023/04/28 14:13:14;;;;;;;;;;;18.50;59.40;;;;;;5012131;28;20032;-76